New Limerick, Maine
Current Conditions -  °F | °C
As of 8:07 AM on Thursday 23 Oct 2014 (Local Time) from KHUL Reporting Station
Overcast Overcast  
Wind Chill: 40°   Ceiling: 1000
Heat Index: 46°   Visibility: 10mi
Dew Point: 43°   Wind: 15mph
Humidity: 89%   Direction: 40°NE
Pressure: 30.12"   Gusts: 23mph
Location:  46.1°N, 67.96°W
Report Text: KHUL 231207Z AUTO 04013G20KT 10SM OVC010 08/06 A3012 RMK AO2 T00780061 PNO
Loading
Personal Weather Stations






























Interactive Weather Map
Tropical Storm Tracking
New forecast layout! Learn more

10-Day Weather Forecast

Advertisements
Track Severe Weather on mobile